CN-0059 weather

Guangzhou East Airfield
Guangdong Province, China

Public forecast

Using degrees Celsius for public forecast. Weather courtesy of forecast.io.

Closest aviation weather report (METAR) to Guangzhou East Airfield

Closest report is Guangzhou Baiyun International Airport, 14.2 nm (26.3 km) NNW. Retrieved 2020/05/26 19:30 UTC (0 seconds ago):

ZGGG 261930Z 05002MPS 9999 SCT046 26/21 Q1008 NOSIG

Closest aviation forecast (TAF) to Guangzhou East Airfield

Closest forecast is Guangzhou Baiyun International Airport, 14.2 nm (26.3 km) NNW. Retrieved 2020/05/26 18:03 UTC (1 hour ago):

TAF ZGGG 261513Z 2618/2718 34003MPS 8000 BKN040 TX33/2707Z TN26/2622Z TEMPO 2618/2623 3500 TSRA SCT011 SCT030CB BKN033